sensor_id;sensor_type;location;lat;lon;timestamp;P1;durP1;ratioP1;P2;durP2;ratioP2
11046;SDS011;5576;50.008;10.596;2023-07-22T00:00:50;3.03;;;2.70;;
11046;SDS011;5576;50.008;10.596;2023-07-22T00:03:16;2.65;;;2.45;;
11046;SDS011;5576;50.008;10.596;2023-07-22T00:05:42;3.40;;;2.40;;
11046;SDS011;5576;50.008;10.596;2023-07-22T00:08:09;2.47;;;2.28;;
11046;SDS011;5576;50.008;10.596;2023-07-22T00:10:34;2.77;;;2.50;;
11046;SDS011;5576;50.008;10.596;2023-07-22T00:13:00;4.00;;;2.63;;
11046;SDS011;5576;50.008;10.596;2023-07-22T00:15:26;4.40;;;2.50;;
11046;SDS011;5576;50.008;10.596;2023-07-22T00:17:52;2.92;;;2.40;;
11046;SDS011;5576;50.008;10.596;2023-07-22T00:20:18;3.20;;;2.42;;
11046;SDS011;5576;50.008;10.596;2023-07-22T00:22:45;2.83;;;2.30;;
11046;SDS011;5576;50.008;10.596;2023-07-22T00:25:11;3.20;;;2.40;;
11046;SDS011;5576;50.008;10.596;2023-07-22T00:27:38;3.80;;;2.50;;
11046;SDS011;5576;50.008;10.596;2023-07-22T00:30:05;4.05;;;2.35;;
11046;SDS011;5576;50.008;10.596;2023-07-22T00:32:32;4.32;;;2.70;;
11046;SDS011;5576;50.008;10.596;2023-07-22T00:34:58;2.60;;;2.40;;
11046;SDS011;5576;50.008;10.596;2023-07-22T00:37:24;5.93;;;2.67;;
11046;SDS011;5576;50.008;10.596;2023-07-22T00:39:50;4.88;;;2.45;;
11046;SDS011;5576;50.008;10.596;2023-07-22T00:42:16;3.03;;;2.55;;
11046;SDS011;5576;50.008;10.596;2023-07-22T00:44:42;4.22;;;2.67;;
11046;SDS011;5576;50.008;10.596;2023-07-22T00:47:08;3.30;;;2.90;;
11046;SDS011;5576;50.008;10.596;2023-07-22T00:49:34;5.90;;;2.50;;
11046;SDS011;5576;50.008;10.596;2023-07-22T00:52:01;3.72;;;2.40;;
11046;SDS011;5576;50.008;10.596;2023-07-22T00:54:28;3.67;;;2.77;;
11046;SDS011;5576;50.008;10.596;2023-07-22T00:56:56;3.33;;;2.80;;
11046;SDS011;5576;50.008;10.596;2023-07-22T00:59:22;3.60;;;2.60;;
11046;SDS011;5576;50.008;10.596;2023-07-22T01:01:49;3.58;;;2.58;;
11046;SDS011;5576;50.008;10.596;2023-07-22T01:04:15;3.27;;;2.83;;
11046;SDS011;5576;50.008;10.596;2023-07-22T01:06:44;3.13;;;2.65;;
11046;SDS011;5576;50.008;10.596;2023-07-22T01:09:10;3.85;;;2.70;;
11046;SDS011;5576;50.008;10.596;2023-07-22T01:11:36;4.37;;;3.00;;
11046;SDS011;5576;50.008;10.596;2023-07-22T01:14:02;3.45;;;2.53;;
11046;SDS011;5576;50.008;10.596;2023-07-22T01:16:29;3.13;;;2.55;;
11046;SDS011;5576;50.008;10.596;2023-07-22T01:18:55;4.97;;;2.67;;
11046;SDS011;5576;50.008;10.596;2023-07-22T01:21:22;4.20;;;2.95;;
11046;SDS011;5576;50.008;10.596;2023-07-22T01:23:49;4.43;;;2.87;;
11046;SDS011;5576;50.008;10.596;2023-07-22T01:26:15;4.47;;;2.80;;
11046;SDS011;5576;50.008;10.596;2023-07-22T01:28:41;3.78;;;3.03;;
11046;SDS011;5576;50.008;10.596;2023-07-22T01:31:08;4.05;;;2.78;;
11046;SDS011;5576;50.008;10.596;2023-07-22T01:33:34;3.67;;;3.00;;
11046;SDS011;5576;50.008;10.596;2023-07-22T01:35:59;4.33;;;3.40;;
11046;SDS011;5576;50.008;10.596;2023-07-22T01:38:27;3.75;;;2.88;;
11046;SDS011;5576;50.008;10.596;2023-07-22T01:40:54;5.25;;;3.78;;
11046;SDS011;5576;50.008;10.596;2023-07-22T01:43:20;4.00;;;3.30;;
11046;SDS011;5576;50.008;10.596;2023-07-22T01:45:46;4.15;;;3.53;;
11046;SDS011;5576;50.008;10.596;2023-07-22T01:48:12;4.47;;;3.70;;
11046;SDS011;5576;50.008;10.596;2023-07-22T01:50:38;5.07;;;4.20;;
11046;SDS011;5576;50.008;10.596;2023-07-22T01:53:04;4.13;;;3.65;;
11046;SDS011;5576;50.008;10.596;2023-07-22T01:55:31;3.77;;;3.43;;
11046;SDS011;5576;50.008;10.596;2023-07-22T01:57:58;4.88;;;3.90;;
11046;SDS011;5576;50.008;10.596;2023-07-22T02:00:24;4.95;;;3.80;;
11046;SDS011;5576;50.008;10.596;2023-07-22T02:02:50;4.55;;;4.10;;
11046;SDS011;5576;50.008;10.596;2023-07-22T02:05:15;5.57;;;4.33;;
11046;SDS011;5576;50.008;10.596;2023-07-22T02:07:41;5.72;;;4.47;;
11046;SDS011;5576;50.008;10.596;2023-07-22T02:10:07;4.78;;;4.10;;
11046;SDS011;5576;50.008;10.596;2023-07-22T02:12:35;4.80;;;4.38;;
11046;SDS011;5576;50.008;10.596;2023-07-22T02:15:01;5.65;;;4.30;;
11046;SDS011;5576;50.008;10.596;2023-07-22T02:17:28;5.00;;;3.92;;
11046;SDS011;5576;50.008;10.596;2023-07-22T02:19:56;4.43;;;4.03;;
11046;SDS011;5576;50.008;10.596;2023-07-22T02:22:22;4.85;;;4.20;;
11046;SDS011;5576;50.008;10.596;2023-07-22T02:24:47;6.30;;;5.18;;
11046;SDS011;5576;50.008;10.596;2023-07-22T02:27:13;4.83;;;4.33;;
11046;SDS011;5576;50.008;10.596;2023-07-22T02:29:39;5.18;;;4.63;;
11046;SDS011;5576;50.008;10.596;2023-07-22T02:32:05;4.90;;;4.40;;
11046;SDS011;5576;50.008;10.596;2023-07-22T02:34:31;5.47;;;4.80;;
11046;SDS011;5576;50.008;10.596;2023-07-22T02:36:57;6.78;;;4.88;;
11046;SDS011;5576;50.008;10.596;2023-07-22T02:39:23;6.03;;;4.47;;
11046;SDS011;5576;50.008;10.596;2023-07-22T02:41:49;7.73;;;4.67;;
11046;SDS011;5576;50.008;10.596;2023-07-22T02:44:15;5.70;;;4.50;;
11046;SDS011;5576;50.008;10.596;2023-07-22T02:46:41;6.28;;;5.00;;
11046;SDS011;5576;50.008;10.596;2023-07-22T02:49:07;6.40;;;4.70;;
11046;SDS011;5576;50.008;10.596;2023-07-22T02:51:32;6.15;;;4.65;;
11046;SDS011;5576;50.008;10.596;2023-07-22T02:53:58;7.17;;;4.80;;
11046;SDS011;5576;50.008;10.596;2023-07-22T02:56:24;5.35;;;4.60;;
11046;SDS011;5576;50.008;10.596;2023-07-22T02:58:50;7.38;;;5.30;;
11046;SDS011;5576;50.008;10.596;2023-07-22T03:01:15;6.40;;;5.40;;
11046;SDS011;5576;50.008;10.596;2023-07-22T03:03:41;6.15;;;5.55;;
11046;SDS011;5576;50.008;10.596;2023-07-22T03:06:07;5.60;;;5.10;;
11046;SDS011;5576;50.008;10.596;2023-07-22T03:08:34;6.35;;;4.97;;
11046;SDS011;5576;50.008;10.596;2023-07-22T03:11:00;5.55;;;5.05;;
11046;SDS011;5576;50.008;10.596;2023-07-22T03:13:26;6.20;;;4.88;;
11046;SDS011;5576;50.008;10.596;2023-07-22T03:15:55;7.13;;;4.95;;
11046;SDS011;5576;50.008;10.596;2023-07-22T03:18:21;6.10;;;4.68;;
11046;SDS011;5576;50.008;10.596;2023-07-22T03:20:47;6.15;;;4.90;;
11046;SDS011;5576;50.008;10.596;2023-07-22T03:23:13;5.78;;;5.10;;
11046;SDS011;5576;50.008;10.596;2023-07-22T03:25:39;6.03;;;4.90;;
11046;SDS011;5576;50.008;10.596;2023-07-22T03:28:06;4.95;;;4.43;;
11046;SDS011;5576;50.008;10.596;2023-07-22T03:30:33;5.63;;;4.97;;
11046;SDS011;5576;50.008;10.596;2023-07-22T03:32:59;5.20;;;4.70;;
11046;SDS011;5576;50.008;10.596;2023-07-22T03:35:26;5.60;;;5.00;;
11046;SDS011;5576;50.008;10.596;2023-07-22T03:37:52;5.60;;;4.85;;
11046;SDS011;5576;50.008;10.596;2023-07-22T03:40:18;5.95;;;5.35;;
11046;SDS011;5576;50.008;10.596;2023-07-22T03:42:47;5.18;;;4.68;;
11046;SDS011;5576;50.008;10.596;2023-07-22T03:45:15;5.00;;;4.30;;
11046;SDS011;5576;50.008;10.596;2023-07-22T03:47:43;6.50;;;4.90;;
11046;SDS011;5576;50.008;10.596;2023-07-22T03:50:10;5.32;;;4.50;;
11046;SDS011;5576;50.008;10.596;2023-07-22T03:52:36;5.40;;;4.90;;
11046;SDS011;5576;50.008;10.596;2023-07-22T03:55:02;4.50;;;4.00;;
11046;SDS011;5576;50.008;10.596;2023-07-22T03:57:28;5.87;;;4.83;;
11046;SDS011;5576;50.008;10.596;2023-07-22T03:59:55;5.30;;;4.80;;
11046;SDS011;5576;50.008;10.596;2023-07-22T04:02:21;5.50;;;5.00;;
11046;SDS011;5576;50.008;10.596;2023-07-22T04:04:47;5.78;;;5.15;;
11046;SDS011;5576;50.008;10.596;2023-07-22T04:07:13;5.78;;;5.20;;
11046;SDS011;5576;50.008;10.596;2023-07-22T04:09:39;5.70;;;4.83;;
11046;SDS011;5576;50.008;10.596;2023-07-22T04:12:06;5.20;;;4.70;;
11046;SDS011;5576;50.008;10.596;2023-07-22T04:14:32;5.30;;;4.45;;
11046;SDS011;5576;50.008;10.596;2023-07-22T04:16:58;5.90;;;4.80;;
11046;SDS011;5576;50.008;10.596;2023-07-22T04:19:24;6.10;;;4.47;;
11046;SDS011;5576;50.008;10.596;2023-07-22T04:21:49;4.33;;;3.93;;
11046;SDS011;5576;50.008;10.596;2023-07-22T04:24:15;5.15;;;4.43;;
11046;SDS011;5576;50.008;10.596;2023-07-22T04:26:42;4.93;;;4.33;;
11046;SDS011;5576;50.008;10.596;2023-07-22T04:29:08;4.75;;;4.28;;
11046;SDS011;5576;50.008;10.596;2023-07-22T04:31:36;5.07;;;4.18;;
11046;SDS011;5576;50.008;10.596;2023-07-22T04:34:02;4.78;;;4.05;;
11046;SDS011;5576;50.008;10.596;2023-07-22T04:36:28;4.70;;;3.90;;
11046;SDS011;5576;50.008;10.596;2023-07-22T04:38:53;4.47;;;3.90;;
11046;SDS011;5576;50.008;10.596;2023-07-22T04:41:19;4.85;;;4.20;;
11046;SDS011;5576;50.008;10.596;2023-07-22T04:43:45;4.80;;;4.30;;
11046;SDS011;5576;50.008;10.596;2023-07-22T04:46:10;4.80;;;4.32;;
11046;SDS011;5576;50.008;10.596;2023-07-22T04:48:36;4.83;;;4.00;;
11046;SDS011;5576;50.008;10.596;2023-07-22T04:51:02;4.35;;;3.90;;
11046;SDS011;5576;50.008;10.596;2023-07-22T04:53:28;6.27;;;4.80;;
11046;SDS011;5576;50.008;10.596;2023-07-22T04:55:53;4.75;;;4.25;;
11046;SDS011;5576;50.008;10.596;2023-07-22T04:58:20;4.80;;;4.30;;
11046;SDS011;5576;50.008;10.596;2023-07-22T05:00:46;4.68;;;4.15;;
11046;SDS011;5576;50.008;10.596;2023-07-22T05:03:13;4.40;;;4.00;;
11046;SDS011;5576;50.008;10.596;2023-07-22T05:05:39;4.57;;;4.18;;
11046;SDS011;5576;50.008;10.596;2023-07-22T05:08:05;5.15;;;4.30;;
11046;SDS011;5576;50.008;10.596;2023-07-22T05:10:33;5.03;;;4.05;;
11046;SDS011;5576;50.008;10.596;2023-07-22T05:12:59;6.97;;;4.10;;
11046;SDS011;5576;50.008;10.596;2023-07-22T05:15:24;5.15;;;3.90;;
11046;SDS011;5576;50.008;10.596;2023-07-22T05:17:50;6.87;;;4.53;;
11046;SDS011;5576;50.008;10.596;2023-07-22T05:20:16;5.25;;;4.28;;
11046;SDS011;5576;50.008;10.596;2023-07-22T05:22:42;4.90;;;4.00;;
11046;SDS011;5576;50.008;10.596;2023-07-22T05:25:08;4.30;;;3.90;;
11046;SDS011;5576;50.008;10.596;2023-07-22T05:27:35;5.60;;;4.60;;
11046;SDS011;5576;50.008;10.596;2023-07-22T05:30:01;4.85;;;4.32;;
11046;SDS011;5576;50.008;10.596;2023-07-22T05:32:28;5.55;;;4.15;;
11046;SDS011;5576;50.008;10.596;2023-07-22T05:34:55;6.05;;;4.55;;
11046;SDS011;5576;50.008;10.596;2023-07-22T05:37:21;4.50;;;4.10;;
11046;SDS011;5576;50.008;10.596;2023-07-22T05:39:48;6.15;;;4.60;;
11046;SDS011;5576;50.008;10.596;2023-07-22T05:42:13;5.20;;;4.70;;
11046;SDS011;5576;50.008;10.596;2023-07-22T05:44:39;6.28;;;5.10;;
11046;SDS011;5576;50.008;10.596;2023-07-22T05:47:05;5.40;;;4.90;;
11046;SDS011;5576;50.008;10.596;2023-07-22T05:49:31;5.32;;;4.82;;
11046;SDS011;5576;50.008;10.596;2023-07-22T05:51:57;6.23;;;5.13;;
11046;SDS011;5576;50.008;10.596;2023-07-22T05:54:22;5.60;;;5.10;;
11046;SDS011;5576;50.008;10.596;2023-07-22T05:56:48;6.00;;;5.23;;
11046;SDS011;5576;50.008;10.596;2023-07-22T05:59:14;5.75;;;4.72;;
11046;SDS011;5576;50.008;10.596;2023-07-22T06:01:39;6.23;;;4.90;;
11046;SDS011;5576;50.008;10.596;2023-07-22T06:04:05;5.22;;;4.68;;
11046;SDS011;5576;50.008;10.596;2023-07-22T06:06:31;5.60;;;5.00;;
11046;SDS011;5576;50.008;10.596;2023-07-22T06:08:57;5.78;;;5.25;;
11046;SDS011;5576;50.008;10.596;2023-07-22T06:11:23;6.27;;;5.33;;
11046;SDS011;5576;50.008;10.596;2023-07-22T06:13:49;5.45;;;4.93;;
11046;SDS011;5576;50.008;10.596;2023-07-22T06:16:14;5.90;;;5.30;;
11046;SDS011;5576;50.008;10.596;2023-07-22T06:18:40;5.75;;;4.90;;
11046;SDS011;5576;50.008;10.596;2023-07-22T06:21:06;7.20;;;4.60;;
11046;SDS011;5576;50.008;10.596;2023-07-22T06:23:32;6.30;;;5.15;;
11046;SDS011;5576;50.008;10.596;2023-07-22T06:25:57;6.03;;;4.90;;
11046;SDS011;5576;50.008;10.596;2023-07-22T06:28:23;5.70;;;5.10;;
11046;SDS011;5576;50.008;10.596;2023-07-22T06:30:49;6.30;;;5.30;;
11046;SDS011;5576;50.008;10.596;2023-07-22T06:33:14;5.57;;;4.72;;
11046;SDS011;5576;50.008;10.596;2023-07-22T06:35:41;5.95;;;4.95;;
11046;SDS011;5576;50.008;10.596;2023-07-22T06:38:07;5.13;;;4.63;;
11046;SDS011;5576;50.008;10.596;2023-07-22T06:40:33;5.30;;;4.80;;
11046;SDS011;5576;50.008;10.596;2023-07-22T06:42:58;4.97;;;4.47;;
11046;SDS011;5576;50.008;10.596;2023-07-22T06:45:24;6.87;;;5.30;;
11046;SDS011;5576;50.008;10.596;2023-07-22T06:47:50;5.70;;;5.10;;
11046;SDS011;5576;50.008;10.596;2023-07-22T06:50:16;5.83;;;5.23;;
11046;SDS011;5576;50.008;10.596;2023-07-22T06:52:41;6.87;;;5.93;;
11046;SDS011;5576;50.008;10.596;2023-07-22T06:55:07;6.50;;;5.70;;
11046;SDS011;5576;50.008;10.596;2023-07-22T06:57:33;7.07;;;5.28;;
11046;SDS011;5576;50.008;10.596;2023-07-22T06:59:59;5.73;;;4.77;;
11046;SDS011;5576;50.008;10.596;2023-07-22T07:02:25;5.70;;;5.18;;
11046;SDS011;5576;50.008;10.596;2023-07-22T07:04:52;7.13;;;5.38;;
11046;SDS011;5576;50.008;10.596;2023-07-22T07:07:17;5.10;;;4.60;;
11046;SDS011;5576;50.008;10.596;2023-07-22T07:09:43;6.57;;;5.30;;
11046;SDS011;5576;50.008;10.596;2023-07-22T07:12:09;5.90;;;5.10;;
11046;SDS011;5576;50.008;10.596;2023-07-22T07:14:35;6.97;;;5.00;;
11046;SDS011;5576;50.008;10.596;2023-07-22T07:17:01;7.65;;;5.60;;
11046;SDS011;5576;50.008;10.596;2023-07-22T07:19:27;6.28;;;4.95;;
11046;SDS011;5576;50.008;10.596;2023-07-22T07:21:53;5.80;;;5.20;;
11046;SDS011;5576;50.008;10.596;2023-07-22T07:24:19;6.00;;;5.40;;
11046;SDS011;5576;50.008;10.596;2023-07-22T07:26:45;6.50;;;5.50;;
11046;SDS011;5576;50.008;10.596;2023-07-22T07:29:11;6.82;;;5.25;;
11046;SDS011;5576;50.008;10.596;2023-07-22T07:31:38;6.80;;;5.40;;
11046;SDS011;5576;50.008;10.596;2023-07-22T07:34:03;6.82;;;5.72;;
11046;SDS011;5576;50.008;10.596;2023-07-22T07:36:29;6.68;;;5.15;;
11046;SDS011;5576;50.008;10.596;2023-07-22T07:38:56;6.28;;;5.03;;
11046;SDS011;5576;50.008;10.596;2023-07-22T07:41:22;6.73;;;5.80;;
11046;SDS011;5576;50.008;10.596;2023-07-22T07:43:47;6.68;;;5.35;;
11046;SDS011;5576;50.008;10.596;2023-07-22T07:46:28;6.97;;;4.80;;
11046;SDS011;5576;50.008;10.596;2023-07-22T07:48:56;6.13;;;5.20;;
11046;SDS011;5576;50.008;10.596;2023-07-22T07:51:25;5.55;;;4.57;;
11046;SDS011;5576;50.008;10.596;2023-07-22T07:53:52;5.30;;;4.80;;
11046;SDS011;5576;50.008;10.596;2023-07-22T07:56:19;5.57;;;4.93;;
11046;SDS011;5576;50.008;10.596;2023-07-22T07:58:46;5.55;;;5.00;;
11046;SDS011;5576;50.008;10.596;2023-07-22T08:01:13;6.50;;;5.20;;
11046;SDS011;5576;50.008;10.596;2023-07-22T08:03:40;6.25;;;4.78;;
11046;SDS011;5576;50.008;10.596;2023-07-22T08:06:07;5.93;;;4.80;;
11046;SDS011;5576;50.008;10.596;2023-07-22T08:08:34;6.03;;;5.20;;
11046;SDS011;5576;50.008;10.596;2023-07-22T08:11:01;6.55;;;4.97;;
11046;SDS011;5576;50.008;10.596;2023-07-22T08:13:29;6.05;;;5.25;;
11046;SDS011;5576;50.008;10.596;2023-07-22T08:15:57;5.95;;;4.80;;
11046;SDS011;5576;50.008;10.596;2023-07-22T08:18:23;5.13;;;4.63;;
11046;SDS011;5576;50.008;10.596;2023-07-22T08:20:50;6.80;;;4.82;;
11046;SDS011;5576;50.008;10.596;2023-07-22T08:23:17;5.57;;;4.70;;
11046;SDS011;5576;50.008;10.596;2023-07-22T08:25:43;7.30;;;5.32;;
11046;SDS011;5576;50.008;10.596;2023-07-22T08:28:09;5.90;;;4.63;;
11046;SDS011;5576;50.008;10.596;2023-07-22T08:30:35;4.03;;;3.63;;
11046;SDS011;5576;50.008;10.596;2023-07-22T08:33:00;4.65;;;3.67;;
11046;SDS011;5576;50.008;10.596;2023-07-22T08:35:26;4.57;;;3.80;;
11046;SDS011;5576;50.008;10.596;2023-07-22T08:37:52;4.47;;;3.80;;
11046;SDS011;5576;50.008;10.596;2023-07-22T08:40:19;4.15;;;3.65;;
11046;SDS011;5576;50.008;10.596;2023-07-22T08:42:45;4.13;;;3.50;;
11046;SDS011;5576;50.008;10.596;2023-07-22T08:45:13;4.10;;;3.47;;
11046;SDS011;5576;50.008;10.596;2023-07-22T08:47:44;3.70;;;3.40;;
11046;SDS011;5576;50.008;10.596;2023-07-22T08:50:11;4.63;;;4.10;;
11046;SDS011;5576;50.008;10.596;2023-07-22T08:52:40;4.35;;;3.30;;
11046;SDS011;5576;50.008;10.596;2023-07-22T08:55:06;5.32;;;4.28;;
11046;SDS011;5576;50.008;10.596;2023-07-22T08:57:35;4.88;;;3.80;;
11046;SDS011;5576;50.008;10.596;2023-07-22T09:00:03;4.50;;;3.97;;
11046;SDS011;5576;50.008;10.596;2023-07-22T09:02:33;4.40;;;3.70;;
11046;SDS011;5576;50.008;10.596;2023-07-22T09:04:59;4.00;;;3.60;;
11046;SDS011;5576;50.008;10.596;2023-07-22T09:07:25;3.87;;;3.50;;
11046;SDS011;5576;50.008;10.596;2023-07-22T09:09:52;4.93;;;3.53;;
11046;SDS011;5576;50.008;10.596;2023-07-22T09:12:18;3.50;;;3.20;;
11046;SDS011;5576;50.008;10.596;2023-07-22T09:14:48;3.85;;;3.45;;
11046;SDS011;5576;50.008;10.596;2023-07-22T09:17:15;4.23;;;3.60;;
11046;SDS011;5576;50.008;10.596;2023-07-22T09:19:41;3.60;;;3.30;;
11046;SDS011;5576;50.008;10.596;2023-07-22T09:22:07;4.93;;;3.53;;
11046;SDS011;5576;50.008;10.596;2023-07-22T09:24:33;3.95;;;3.50;;
11046;SDS011;5576;50.008;10.596;2023-07-22T09:26:59;3.35;;;3.00;;
11046;SDS011;5576;50.008;10.596;2023-07-22T09:29:41;3.55;;;3.17;;
11046;SDS011;5576;50.008;10.596;2023-07-22T09:32:07;4.32;;;3.33;;
11046;SDS011;5576;50.008;10.596;2023-07-22T09:34:32;4.27;;;3.30;;
11046;SDS011;5576;50.008;10.596;2023-07-22T09:36:59;3.40;;;3.10;;
11046;SDS011;5576;50.008;10.596;2023-07-22T09:39:26;3.42;;;3.00;;
11046;SDS011;5576;50.008;10.596;2023-07-22T09:41:52;4.32;;;3.28;;
11046;SDS011;5576;50.008;10.596;2023-07-22T09:44:18;4.53;;;2.90;;
11046;SDS011;5576;50.008;10.596;2023-07-22T09:46:47;3.30;;;2.80;;
11046;SDS011;5576;50.008;10.596;2023-07-22T09:49:15;3.65;;;3.20;;
11046;SDS011;5576;50.008;10.596;2023-07-22T09:51:42;3.28;;;2.97;;
11046;SDS011;5576;50.008;10.596;2023-07-22T09:54:08;3.40;;;3.10;;
11046;SDS011;5576;50.008;10.596;2023-07-22T09:56:49;3.42;;;3.13;;
11046;SDS011;5576;50.008;10.596;2023-07-22T09:59:17;3.80;;;3.20;;
11046;SDS011;5576;50.008;10.596;2023-07-22T10:01:45;3.50;;;3.15;;
11046;SDS011;5576;50.008;10.596;2023-07-22T10:04:15;3.50;;;3.20;;
11046;SDS011;5576;50.008;10.596;2023-07-22T10:06:42;3.10;;;2.80;;
11046;SDS011;5576;50.008;10.596;2023-07-22T10:09:09;3.75;;;3.25;;
11046;SDS011;5576;50.008;10.596;2023-07-22T10:11:37;3.90;;;2.90;;
11046;SDS011;5576;50.008;10.596;2023-07-22T10:14:05;4.13;;;3.28;;
11046;SDS011;5576;50.008;10.596;2023-07-22T10:16:31;3.70;;;2.83;;
11046;SDS011;5576;50.008;10.596;2023-07-22T10:18:58;3.33;;;2.88;;
11046;SDS011;5576;50.008;10.596;2023-07-22T10:21:24;3.60;;;3.00;;
11046;SDS011;5576;50.008;10.596;2023-07-22T10:23:53;4.35;;;2.97;;
11046;SDS011;5576;50.008;10.596;2023-07-22T10:26:20;3.17;;;2.88;;
11046;SDS011;5576;50.008;10.596;2023-07-22T10:28:46;3.30;;;2.87;;
11046;SDS011;5576;50.008;10.596;2023-07-22T10:31:14;4.45;;;2.70;;
11046;SDS011;5576;50.008;10.596;2023-07-22T10:33:45;3.25;;;2.70;;
11046;SDS011;5576;50.008;10.596;2023-07-22T10:36:13;4.00;;;2.90;;
11046;SDS011;5576;50.008;10.596;2023-07-22T10:38:41;2.90;;;2.60;;
11046;SDS011;5576;50.008;10.596;2023-07-22T10:41:15;3.47;;;3.00;;
11046;SDS011;5576;50.008;10.596;2023-07-22T10:43:42;3.63;;;2.70;;
11046;SDS011;5576;50.008;10.596;2023-07-22T10:46:20;3.22;;;2.75;;
11046;SDS011;5576;50.008;10.596;2023-07-22T10:49:09;3.13;;;2.63;;
11046;SDS011;5576;50.008;10.596;2023-07-22T10:51:36;4.22;;;2.63;;
11046;SDS011;5576;50.008;10.596;2023-07-22T10:54:02;3.85;;;2.90;;
11046;SDS011;5576;50.008;10.596;2023-07-22T10:56:35;3.10;;;2.75;;
11046;SDS011;5576;50.008;10.596;2023-07-22T10:59:01;3.50;;;2.80;;
11046;SDS011;5576;50.008;10.596;2023-07-22T11:09:42;3.10;;;2.77;;
11046;SDS011;5576;50.008;10.596;2023-07-22T11:14:51;3.40;;;2.55;;
11046;SDS011;5576;50.008;10.596;2023-07-22T11:17:28;3.95;;;2.70;;
11046;SDS011;5576;50.008;10.596;2023-07-22T11:19:55;3.20;;;2.47;;
11046;SDS011;5576;50.008;10.596;2023-07-22T11:22:22;3.17;;;2.53;;
11046;SDS011;5576;50.008;10.596;2023-07-22T11:24:47;3.63;;;2.60;;
11046;SDS011;5576;50.008;10.596;2023-07-22T11:27:13;3.67;;;2.60;;
11046;SDS011;5576;50.008;10.596;2023-07-22T11:29:39;3.15;;;2.50;;
11046;SDS011;5576;50.008;10.596;2023-07-22T11:32:05;2.58;;;2.30;;
11046;SDS011;5576;50.008;10.596;2023-07-22T11:34:32;2.97;;;2.67;;
11046;SDS011;5576;50.008;10.596;2023-07-22T11:36:58;2.78;;;2.50;;
11046;SDS011;5576;50.008;10.596;2023-07-22T11:39:24;3.13;;;2.50;;
11046;SDS011;5576;50.008;10.596;2023-07-22T11:41:52;2.90;;;2.50;;
11046;SDS011;5576;50.008;10.596;2023-07-22T11:44:19;3.78;;;2.53;;
11046;SDS011;5576;50.008;10.596;2023-07-22T11:49:23;2.80;;;2.35;;
11046;SDS011;5576;50.008;10.596;2023-07-22T11:51:50;3.75;;;2.33;;
11046;SDS011;5576;50.008;10.596;2023-07-22T11:54:20;3.03;;;2.40;;
11046;SDS011;5576;50.008;10.596;2023-07-22T11:56:46;2.65;;;2.40;;
11046;SDS011;5576;50.008;10.596;2023-07-22T11:59:12;3.03;;;2.40;;
11046;SDS011;5576;50.008;10.596;2023-07-22T12:01:38;3.35;;;2.42;;
11046;SDS011;5576;50.008;10.596;2023-07-22T12:04:09;3.03;;;2.43;;
11046;SDS011;5576;50.008;10.596;2023-07-22T12:06:36;3.00;;;2.55;;
11046;SDS011;5576;50.008;10.596;2023-07-22T12:09:02;3.83;;;2.53;;
11046;SDS011;5576;50.008;10.596;2023-07-22T12:11:30;4.38;;;2.55;;
11046;SDS011;5576;50.008;10.596;2023-07-22T12:14:13;2.70;;;2.50;;
11046;SDS011;5576;50.008;10.596;2023-07-22T12:16:40;3.88;;;2.42;;
11046;SDS011;5576;50.008;10.596;2023-07-22T12:19:07;3.33;;;2.53;;
11046;SDS011;5576;50.008;10.596;2023-07-22T12:21:34;3.15;;;2.53;;
11046;SDS011;5576;50.008;10.596;2023-07-22T12:24:00;3.20;;;2.58;;
11046;SDS011;5576;50.008;10.596;2023-07-22T12:26:27;3.20;;;2.50;;
11046;SDS011;5576;50.008;10.596;2023-07-22T12:28:53;3.17;;;2.60;;
11046;SDS011;5576;50.008;10.596;2023-07-22T12:31:18;3.10;;;2.50;;
11046;SDS011;5576;50.008;10.596;2023-07-22T12:33:44;3.20;;;2.30;;
11046;SDS011;5576;50.008;10.596;2023-07-22T12:36:10;2.53;;;2.17;;
11046;SDS011;5576;50.008;10.596;2023-07-22T12:38:37;2.70;;;2.20;;
11046;SDS011;5576;50.008;10.596;2023-07-22T12:41:02;2.40;;;2.20;;
11046;SDS011;5576;50.008;10.596;2023-07-22T12:43:28;3.77;;;2.70;;
11046;SDS011;5576;50.008;10.596;2023-07-22T12:45:55;2.45;;;2.20;;
11046;SDS011;5576;50.008;10.596;2023-07-22T12:48:21;2.87;;;2.23;;
11046;SDS011;5576;50.008;10.596;2023-07-22T12:50:49;2.75;;;2.30;;
11046;SDS011;5576;50.008;10.596;2023-07-22T12:53:15;2.80;;;2.33;;
11046;SDS011;5576;50.008;10.596;2023-07-22T12:55:41;3.67;;;2.40;;
11046;SDS011;5576;50.008;10.596;2023-07-22T12:58:07;2.85;;;2.45;;
11046;SDS011;5576;50.008;10.596;2023-07-22T13:00:33;2.53;;;2.23;;
11046;SDS011;5576;50.008;10.596;2023-07-22T13:02:59;2.40;;;2.20;;
11046;SDS011;5576;50.008;10.596;2023-07-22T13:05:25;3.13;;;2.28;;
11046;SDS011;5576;50.008;10.596;2023-07-22T13:07:50;2.60;;;2.17;;
11046;SDS011;5576;50.008;10.596;2023-07-22T13:10:18;2.95;;;2.35;;
11046;SDS011;5576;50.008;10.596;2023-07-22T13:12:45;2.45;;;2.25;;
11046;SDS011;5576;50.008;10.596;2023-07-22T13:15:11;2.40;;;2.20;;
11046;SDS011;5576;50.008;10.596;2023-07-22T13:17:37;2.30;;;2.10;;
11046;SDS011;5576;50.008;10.596;2023-07-22T13:20:04;2.97;;;2.28;;
11046;SDS011;5576;50.008;10.596;2023-07-22T13:22:32;3.45;;;2.30;;
11046;SDS011;5576;50.008;10.596;2023-07-22T13:24:58;2.45;;;2.20;;
11046;SDS011;5576;50.008;10.596;2023-07-22T13:27:24;2.73;;;2.30;;
11046;SDS011;5576;50.008;10.596;2023-07-22T13:29:49;4.00;;;2.35;;
11046;SDS011;5576;50.008;10.596;2023-07-22T13:32:15;3.93;;;2.50;;
11046;SDS011;5576;50.008;10.596;2023-07-22T13:34:40;2.70;;;2.43;;
11046;SDS011;5576;50.008;10.596;2023-07-22T13:37:06;3.13;;;2.38;;
11046;SDS011;5576;50.008;10.596;2023-07-22T13:39:32;2.70;;;2.30;;
11046;SDS011;5576;50.008;10.596;2023-07-22T13:41:58;2.80;;;2.35;;
11046;SDS011;5576;50.008;10.596;2023-07-22T13:44:24;3.25;;;2.40;;
11046;SDS011;5576;50.008;10.596;2023-07-22T13:46:50;4.03;;;2.35;;
11046;SDS011;5576;50.008;10.596;2023-07-22T13:49:15;2.90;;;2.30;;
11046;SDS011;5576;50.008;10.596;2023-07-22T13:51:42;3.40;;;2.30;;
11046;SDS011;5576;50.008;10.596;2023-07-22T13:54:08;2.97;;;2.23;;
11046;SDS011;5576;50.008;10.596;2023-07-22T13:56:34;3.15;;;2.50;;
11046;SDS011;5576;50.008;10.596;2023-07-22T13:59:00;4.00;;;2.00;;
11046;SDS011;5576;50.008;10.596;2023-07-22T14:01:26;3.03;;;2.17;;
11046;SDS011;5576;50.008;10.596;2023-07-22T14:03:53;2.43;;;2.00;;
11046;SDS011;5576;50.008;10.596;2023-07-22T14:06:18;2.70;;;1.90;;
11046;SDS011;5576;50.008;10.596;2023-07-22T14:08:44;2.53;;;2.20;;
11046;SDS011;5576;50.008;10.596;2023-07-22T14:11:10;3.25;;;2.03;;
11046;SDS011;5576;50.008;10.596;2023-07-22T14:13:36;2.97;;;2.10;;
11046;SDS011;5576;50.008;10.596;2023-07-22T14:16:02;3.00;;;2.00;;
11046;SDS011;5576;50.008;10.596;2023-07-22T14:18:28;4.30;;;2.42;;
11046;SDS011;5576;50.008;10.596;2023-07-22T14:20:54;3.38;;;2.05;;
11046;SDS011;5576;50.008;10.596;2023-07-22T14:23:20;2.93;;;1.90;;
11046;SDS011;5576;50.008;10.596;2023-07-22T14:25:46;2.53;;;2.10;;
11046;SDS011;5576;50.008;10.596;2023-07-22T14:28:12;2.45;;;1.90;;
11046;SDS011;5576;50.008;10.596;2023-07-22T14:30:37;2.40;;;2.00;;
11046;SDS011;5576;50.008;10.596;2023-07-22T14:33:03;2.63;;;2.10;;
11046;SDS011;5576;50.008;10.596;2023-07-22T14:35:29;3.05;;;2.20;;
11046;SDS011;5576;50.008;10.596;2023-07-22T14:37:57;2.92;;;2.20;;
11046;SDS011;5576;50.008;10.596;2023-07-22T14:40:24;2.55;;;2.35;;
11046;SDS011;5576;50.008;10.596;2023-07-22T14:42:50;2.30;;;2.10;;
11046;SDS011;5576;50.008;10.596;2023-07-22T14:45:16;3.07;;;2.30;;
11046;SDS011;5576;50.008;10.596;2023-07-22T14:47:42;3.60;;;2.42;;
11046;SDS011;5576;50.008;10.596;2023-07-22T14:50:08;3.53;;;2.30;;
11046;SDS011;5576;50.008;10.596;2023-07-22T14:52:35;2.60;;;2.22;;
11046;SDS011;5576;50.008;10.596;2023-07-22T14:55:00;2.75;;;2.22;;
11046;SDS011;5576;50.008;10.596;2023-07-22T14:57:26;2.83;;;2.33;;